sensor_id;sensor_type;location;lat;lon;timestamp;pressure;altitude;pressure_sealevel;temperature;humidity
78123;BME280;67376;44.802;10.332;2023-03-02T00:00:45;101249.41;;;17.20;41.85
78123;BME280;67376;44.802;10.332;2023-03-02T00:03:13;101249.19;;;17.21;42.29
78123;BME280;67376;44.802;10.332;2023-03-02T00:05:42;101238.81;;;17.18;41.95
78123;BME280;67376;44.802;10.332;2023-03-02T00:08:20;101238.59;;;17.20;42.31
78123;BME280;67376;44.802;10.332;2023-03-02T00:10:45;101239.84;;;17.17;41.95
78123;BME280;67376;44.802;10.332;2023-03-02T00:13:11;101243.16;;;17.12;42.62
78123;BME280;67376;44.802;10.332;2023-03-02T00:15:38;101240.88;;;17.16;42.38
78123;BME280;67376;44.802;10.332;2023-03-02T00:18:03;101246.47;;;17.14;42.61
78123;BME280;67376;44.802;10.332;2023-03-02T00:20:28;101243.97;;;17.13;42.01
78123;BME280;67376;44.802;10.332;2023-03-02T00:22:54;101242.75;;;17.15;42.73
78123;BME280;67376;44.802;10.332;2023-03-02T00:25:19;101247.09;;;17.16;42.34
78123;BME280;67376;44.802;10.332;2023-03-02T00:27:45;101235.69;;;17.14;42.20
78123;BME280;67376;44.802;10.332;2023-03-02T00:30:14;101234.84;;;17.14;41.84
78123;BME280;67376;44.802;10.332;2023-03-02T00:32:39;101232.16;;;17.14;42.40
78123;BME280;67376;44.802;10.332;2023-03-02T00:35:05;101225.50;;;17.10;42.09
78123;BME280;67376;44.802;10.332;2023-03-02T00:37:31;101234.66;;;17.15;41.91
78123;BME280;67376;44.802;10.332;2023-03-02T00:39:56;101230.06;;;17.09;41.98
78123;BME280;67376;44.802;10.332;2023-03-02T00:42:22;101230.28;;;17.14;41.67
78123;BME280;67376;44.802;10.332;2023-03-02T00:44:47;101226.13;;;17.12;42.15
78123;BME280;67376;44.802;10.332;2023-03-02T00:47:13;101231.53;;;17.12;41.80
78123;BME280;67376;44.802;10.332;2023-03-02T00:49:38;101221.78;;;17.17;42.26
78123;BME280;67376;44.802;10.332;2023-03-02T00:52:04;101223.84;;;17.15;41.86
78123;BME280;67376;44.802;10.332;2023-03-02T00:54:30;101223.22;;;17.13;42.23
78123;BME280;67376;44.802;10.332;2023-03-02T00:56:56;101223.63;;;17.10;41.84
78123;BME280;67376;44.802;10.332;2023-03-02T00:59:22;101224.47;;;17.11;42.21
78123;BME280;67376;44.802;10.332;2023-03-02T01:01:57;101212.00;;;17.10;42.25
78123;BME280;67376;44.802;10.332;2023-03-02T01:04:28;101214.09;;;17.14;42.34
78123;BME280;67376;44.802;10.332;2023-03-02T01:07:04;101208.06;;;17.06;42.22
78123;BME280;67376;44.802;10.332;2023-03-02T01:09:30;101209.50;;;17.08;42.11
78123;BME280;67376;44.802;10.332;2023-03-02T01:11:55;101204.31;;;17.07;41.99
78123;BME280;67376;44.802;10.332;2023-03-02T01:14:21;101205.78;;;17.09;41.97
78123;BME280;67376;44.802;10.332;2023-03-02T01:20:10;101195.41;;;17.06;42.23
78123;BME280;67376;44.802;10.332;2023-03-02T01:22:35;101193.53;;;17.07;41.56
78123;BME280;67376;44.802;10.332;2023-03-02T01:25:01;101196.84;;;17.09;42.03
78123;BME280;67376;44.802;10.332;2023-03-02T01:27:27;101190.63;;;17.08;41.85
78123;BME280;67376;44.802;10.332;2023-03-02T01:29:52;101196.63;;;17.04;42.12
78123;BME280;67376;44.802;10.332;2023-03-02T01:32:18;101191.63;;;17.01;41.87
78123;BME280;67376;44.802;10.332;2023-03-02T01:34:44;101192.91;;;17.05;42.17
78123;BME280;67376;44.802;10.332;2023-03-02T01:37:09;101191.88;;;17.06;41.73
78123;BME280;67376;44.802;10.332;2023-03-02T01:39:35;101188.34;;;17.05;41.37
78123;BME280;67376;44.802;10.332;2023-03-02T01:42:00;101197.06;;;17.07;42.35
78123;BME280;67376;44.802;10.332;2023-03-02T01:47:02;101178.16;;;17.01;42.27
78123;BME280;67376;44.802;10.332;2023-03-02T01:49:31;101183.13;;;17.04;41.83
78123;BME280;67376;44.802;10.332;2023-03-02T01:52:00;101164.66;;;17.01;42.28
78123;BME280;67376;44.802;10.332;2023-03-02T01:54:26;101172.56;;;17.02;41.58
78123;BME280;67376;44.802;10.332;2023-03-02T01:56:55;101165.50;;;17.01;42.23
78123;BME280;67376;44.802;10.332;2023-03-02T01:59:25;101158.88;;;17.04;42.00
78123;BME280;67376;44.802;10.332;2023-03-02T02:01:55;101165.50;;;17.01;42.01
78123;BME280;67376;44.802;10.332;2023-03-02T02:04:24;101161.97;;;17.01;42.01
78123;BME280;67376;44.802;10.332;2023-03-02T02:07:01;101158.44;;;17.00;42.11
78123;BME280;67376;44.802;10.332;2023-03-02T02:09:29;101160.94;;;17.02;41.96
78123;BME280;67376;44.802;10.332;2023-03-02T02:11:56;101161.56;;;17.04;41.78
78123;BME280;67376;44.802;10.332;2023-03-02T02:14:23;101164.47;;;17.02;41.77
78123;BME280;67376;44.802;10.332;2023-03-02T02:16:49;101156.16;;;17.04;42.71
78123;BME280;67376;44.802;10.332;2023-03-02T02:19:34;101166.34;;;17.02;41.88
78123;BME280;67376;44.802;10.332;2023-03-02T02:22:04;101161.97;;;17.01;41.78
78123;BME280;67376;44.802;10.332;2023-03-02T02:26:56;101165.91;;;16.98;42.26
78123;BME280;67376;44.802;10.332;2023-03-02T02:29:34;101159.88;;;16.96;42.33
78123;BME280;67376;44.802;10.332;2023-03-02T02:34:59;101158.44;;;17.00;41.90
78123;BME280;67376;44.802;10.332;2023-03-02T02:37:26;101159.47;;;16.99;42.74
78123;BME280;67376;44.802;10.332;2023-03-02T02:39:53;101149.09;;;16.96;41.71
78123;BME280;67376;44.802;10.332;2023-03-02T02:42:27;101149.50;;;16.93;41.88
78123;BME280;67376;44.802;10.332;2023-03-02T02:44:59;101152.22;;;17.00;42.39
78123;BME280;67376;44.802;10.332;2023-03-02T02:47:25;101145.56;;;16.96;42.13
78123;BME280;67376;44.802;10.332;2023-03-02T02:49:53;101147.19;;;16.90;42.09
78123;BME280;67376;44.802;10.332;2023-03-02T02:52:22;101150.13;;;16.95;42.13
78123;BME280;67376;44.802;10.332;2023-03-02T02:54:52;101152.81;;;16.95;42.14
78123;BME280;67376;44.802;10.332;2023-03-02T02:57:19;101157.19;;;16.96;42.25
78123;BME280;67376;44.802;10.332;2023-03-02T02:59:47;101160.09;;;16.95;43.05
78123;BME280;67376;44.802;10.332;2023-03-02T03:02:20;101155.28;;;16.90;42.37
78123;BME280;67376;44.802;10.332;2023-03-02T03:04:46;101156.75;;;16.93;42.05
78123;BME280;67376;44.802;10.332;2023-03-02T03:07:19;101149.69;;;16.92;41.90
78123;BME280;67376;44.802;10.332;2023-03-02T03:09:48;101144.31;;;16.92;41.99
78123;BME280;67376;44.802;10.332;2023-03-02T03:12:20;101143.47;;;16.91;42.09
78123;BME280;67376;44.802;10.332;2023-03-02T03:14:46;101149.06;;;16.90;42.25
78123;BME280;67376;44.802;10.332;2023-03-02T03:17:12;101153.44;;;16.91;42.14
78123;BME280;67376;44.802;10.332;2023-03-02T03:19:41;101154.06;;;16.93;41.98
78123;BME280;67376;44.802;10.332;2023-03-02T03:22:07;101155.13;;;16.98;42.14
78123;BME280;67376;44.802;10.332;2023-03-02T03:24:36;101153.44;;;16.91;42.24
78123;BME280;67376;44.802;10.332;2023-03-02T03:27:02;101160.28;;;16.93;42.05
78123;BME280;67376;44.802;10.332;2023-03-02T03:29:31;101154.88;;;16.93;42.19
78123;BME280;67376;44.802;10.332;2023-03-02T03:31:58;101157.16;;;16.90;42.15
78123;BME280;67376;44.802;10.332;2023-03-02T03:34:24;101156.97;;;16.91;41.84
78123;BME280;67376;44.802;10.332;2023-03-02T03:36:50;101150.94;;;16.89;41.82
78123;BME280;67376;44.802;10.332;2023-03-02T03:39:16;101154.47;;;16.90;41.85
78123;BME280;67376;44.802;10.332;2023-03-02T03:41:43;101148.44;;;16.88;42.09
78123;BME280;67376;44.802;10.332;2023-03-02T03:44:09;101162.75;;;16.88;42.00
78123;BME280;67376;44.802;10.332;2023-03-02T03:46:35;101165.44;;;16.88;42.18
78123;BME280;67376;44.802;10.332;2023-03-02T03:49:01;101165.66;;;16.87;41.93
78123;BME280;67376;44.802;10.332;2023-03-02T03:51:26;101164.63;;;16.88;42.18
78123;BME280;67376;44.802;10.332;2023-03-02T03:53:52;101169.41;;;16.92;42.37
78123;BME280;67376;44.802;10.332;2023-03-02T03:56:36;101152.56;;;16.83;41.96
78123;BME280;67376;44.802;10.332;2023-03-02T03:59:03;101162.34;;;16.91;42.47
78123;BME280;67376;44.802;10.332;2023-03-02T04:01:39;101166.09;;;16.90;41.56
78123;BME280;67376;44.802;10.332;2023-03-02T04:04:08;101162.97;;;16.93;42.47
78123;BME280;67376;44.802;10.332;2023-03-02T04:06:34;101163.38;;;16.90;41.85
78123;BME280;67376;44.802;10.332;2023-03-02T04:09:00;101146.78;;;16.87;41.88
78123;BME280;67376;44.802;10.332;2023-03-02T04:11:36;101154.47;;;16.90;42.03
78123;BME280;67376;44.802;10.332;2023-03-02T04:14:02;101148.44;;;16.88;42.20
78123;BME280;67376;44.802;10.332;2023-03-02T04:16:29;101147.38;;;16.82;42.17
78123;BME280;67376;44.802;10.332;2023-03-02T04:18:55;101153.41;;;16.84;42.28
78123;BME280;67376;44.802;10.332;2023-03-02T04:21:21;101153.41;;;16.84;41.62
78123;BME280;67376;44.802;10.332;2023-03-02T04:23:46;101150.72;;;16.84;41.71
78123;BME280;67376;44.802;10.332;2023-03-02T04:26:12;101149.44;;;16.80;41.99
78123;BME280;67376;44.802;10.332;2023-03-02T04:28:37;101161.28;;;16.86;41.81
78123;BME280;67376;44.802;10.332;2023-03-02T04:31:03;101151.53;;;16.84;42.40
78123;BME280;67376;44.802;10.332;2023-03-02T04:33:28;101151.75;;;16.83;42.18
78123;BME280;67376;44.802;10.332;2023-03-02T04:35:54;101159.00;;;16.82;41.94
78123;BME280;67376;44.802;10.332;2023-03-02T04:38:20;101159.19;;;16.81;41.95
78123;BME280;67376;44.802;10.332;2023-03-02T04:40:46;101159.81;;;16.83;42.29
78123;BME280;67376;44.802;10.332;2023-03-02T04:43:12;101159.00;;;16.82;42.11
78123;BME280;67376;44.802;10.332;2023-03-02T04:45:37;101154.22;;;16.78;41.89
78123;BME280;67376;44.802;10.332;2023-03-02T04:48:03;101154.41;;;16.76;41.71
78123;BME280;67376;44.802;10.332;2023-03-02T04:50:29;101157.72;;;16.78;42.09
78123;BME280;67376;44.802;10.332;2023-03-02T04:52:54;101159.59;;;16.78;42.76
78123;BME280;67376;44.802;10.332;2023-03-02T04:55:23;101161.91;;;16.81;42.06
78123;BME280;67376;44.802;10.332;2023-03-02T04:57:48;101160.03;;;16.81;41.97
78123;BME280;67376;44.802;10.332;2023-03-02T05:00:16;101162.72;;;16.81;42.18
78123;BME280;67376;44.802;10.332;2023-03-02T05:02:42;101161.25;;;16.79;42.27
78123;BME280;67376;44.802;10.332;2023-03-02T05:05:15;101153.38;;;16.77;42.43
78123;BME280;67376;44.802;10.332;2023-03-02T05:07:41;101162.94;;;16.80;42.09
78123;BME280;67376;44.802;10.332;2023-03-02T05:10:07;101160.03;;;16.81;42.36
78123;BME280;67376;44.802;10.332;2023-03-02T05:12:33;101163.34;;;16.83;41.86
78123;BME280;67376;44.802;10.332;2023-03-02T05:15:18;101147.78;;;16.72;42.48
78123;BME280;67376;44.802;10.332;2023-03-02T05:17:44;101170.81;;;16.81;41.69
78123;BME280;67376;44.802;10.332;2023-03-02T05:20:10;101161.47;;;16.77;42.07
78123;BME280;67376;44.802;10.332;2023-03-02T05:22:36;101162.09;;;16.79;42.04
78123;BME280;67376;44.802;10.332;2023-03-02T05:25:02;101170.00;;;16.74;42.65
78123;BME280;67376;44.802;10.332;2023-03-02T05:27:28;101163.34;;;16.77;41.71
78123;BME280;67376;44.802;10.332;2023-03-02T05:29:53;101156.06;;;16.77;42.03
78123;BME280;67376;44.802;10.332;2023-03-02T05:32:19;101152.97;;;16.80;41.70
78123;BME280;67376;44.802;10.332;2023-03-02T05:34:44;101157.34;;;16.75;42.15
78123;BME280;67376;44.802;10.332;2023-03-02T05:37:09;101151.31;;;16.73;41.78
78123;BME280;67376;44.802;10.332;2023-03-02T05:39:35;101153.19;;;16.72;42.12
78123;BME280;67376;44.802;10.332;2023-03-02T05:42:00;101148.81;;;16.71;41.91
78123;BME280;67376;44.802;10.332;2023-03-02T05:44:26;101146.13;;;16.71;42.37
78123;BME280;67376;44.802;10.332;2023-03-02T05:46:51;101138.25;;;16.70;41.84
78123;BME280;67376;44.802;10.332;2023-03-02T05:49:17;101139.91;;;16.71;41.97
78123;BME280;67376;44.802;10.332;2023-03-02T05:51:42;101151.13;;;16.74;41.90
78123;BME280;67376;44.802;10.332;2023-03-02T05:54:08;101155.25;;;16.77;42.21
78123;BME280;67376;44.802;10.332;2023-03-02T05:56:33;101162.94;;;16.73;42.03
78123;BME280;67376;44.802;10.332;2023-03-02T05:58:58;101162.09;;;16.79;41.90
78123;BME280;67376;44.802;10.332;2023-03-02T06:01:24;101169.16;;;16.80;41.87
78123;BME280;67376;44.802;10.332;2023-03-02T06:03:49;101163.75;;;16.74;42.20
78123;BME280;67376;44.802;10.332;2023-03-02T06:06:15;101169.78;;;16.82;42.25
78123;BME280;67376;44.802;10.332;2023-03-02T06:08:42;101174.53;;;16.80;41.98
78123;BME280;67376;44.802;10.332;2023-03-02T06:11:08;101171.22;;;16.78;42.46
78123;BME280;67376;44.802;10.332;2023-03-02T06:13:33;101168.72;;;16.77;42.13
78123;BME280;67376;44.802;10.332;2023-03-02T06:15:59;101177.88;;;16.82;42.06
78123;BME280;67376;44.802;10.332;2023-03-02T06:18:24;101175.78;;;16.78;42.31
78123;BME280;67376;44.802;10.332;2023-03-02T06:20:49;101177.66;;;16.77;42.37
78123;BME280;67376;44.802;10.332;2023-03-02T06:23:15;101181.38;;;16.76;42.84
78123;BME280;67376;44.802;10.332;2023-03-02T06:25:41;101180.56;;;16.82;42.58
78123;BME280;67376;44.802;10.332;2023-03-02T06:28:12;101180.97;;;16.79;41.94
78123;BME280;67376;44.802;10.332;2023-03-02T06:30:38;101179.09;;;16.80;42.77
78123;BME280;67376;44.802;10.332;2023-03-02T06:33:03;101175.38;;;16.81;42.71
78123;BME280;67376;44.802;10.332;2023-03-02T06:35:28;101184.50;;;16.80;42.62
78123;BME280;67376;44.802;10.332;2023-03-02T06:37:54;101183.25;;;16.82;42.74
78123;BME280;67376;44.802;10.332;2023-03-02T06:40:19;101184.50;;;16.80;42.63
78123;BME280;67376;44.802;10.332;2023-03-02T06:42:46;101173.50;;;16.75;42.37
78123;BME280;67376;44.802;10.332;2023-03-02T06:45:11;101178.28;;;16.79;41.99
78123;BME280;67376;44.802;10.332;2023-03-02T06:47:37;101179.00;;;15.91;41.85
78123;BME280;67376;44.802;10.332;2023-03-02T06:50:03;101189.25;;;15.17;42.44
78123;BME280;67376;44.802;10.332;2023-03-02T06:52:29;101188.78;;;14.18;44.96
78123;BME280;67376;44.802;10.332;2023-03-02T06:54:54;101186.69;;;13.76;45.80
78123;BME280;67376;44.802;10.332;2023-03-02T06:57:20;101182.59;;;14.18;45.48
78123;BME280;67376;44.802;10.332;2023-03-02T06:59:45;101187.72;;;14.57;44.50
78123;BME280;67376;44.802;10.332;2023-03-02T07:02:10;101174.06;;;14.88;44.66
78123;BME280;67376;44.802;10.332;2023-03-02T07:04:36;101176.19;;;15.14;43.89
78123;BME280;67376;44.802;10.332;2023-03-02T07:07:02;101173.50;;;15.35;43.16
78123;BME280;67376;44.802;10.332;2023-03-02T07:09:33;101175.50;;;15.48;43.27
78123;BME280;67376;44.802;10.332;2023-03-02T07:11:59;101177.56;;;15.67;42.68
78123;BME280;67376;44.802;10.332;2023-03-02T07:14:24;101181.97;;;15.75;42.72
78123;BME280;67376;44.802;10.332;2023-03-02T07:16:50;101185.34;;;15.83;42.25
78123;BME280;67376;44.802;10.332;2023-03-02T07:19:15;101186.44;;;15.89;42.41
78123;BME280;67376;44.802;10.332;2023-03-02T07:21:41;101189.19;;;15.96;42.66
78123;BME280;67376;44.802;10.332;2023-03-02T07:24:06;101189.44;;;16.01;41.77
78123;BME280;67376;44.802;10.332;2023-03-02T07:26:32;101171.16;;;15.96;42.10
78123;BME280;67376;44.802;10.332;2023-03-02T07:28:57;101191.16;;;16.08;41.69
78123;BME280;67376;44.802;10.332;2023-03-02T07:31:24;101189.09;;;16.10;42.37
78123;BME280;67376;44.802;10.332;2023-03-02T07:33:50;101196.78;;;16.13;41.79
78123;BME280;67376;44.802;10.332;2023-03-02T07:36:15;101191.19;;;16.15;41.60
78123;BME280;67376;44.802;10.332;2023-03-02T07:38:40;101201.16;;;16.21;41.94
78123;BME280;67376;44.802;10.332;2023-03-02T07:41:08;101196.00;;;16.26;41.52
78123;BME280;67376;44.802;10.332;2023-03-02T07:43:33;101194.59;;;16.30;42.04
78123;BME280;67376;44.802;10.332;2023-03-02T07:46:01;101182.97;;;16.30;41.56
78123;BME280;67376;44.802;10.332;2023-03-02T07:48:27;101192.19;;;16.42;41.35
78123;BME280;67376;44.802;10.332;2023-03-02T07:51:00;101202.56;;;16.45;41.43
78123;BME280;67376;44.802;10.332;2023-03-02T07:53:26;101203.81;;;16.49;41.38
78123;BME280;67376;44.802;10.332;2023-03-02T07:55:52;101204.47;;;16.51;41.65
78123;BME280;67376;44.802;10.332;2023-03-02T07:58:17;101214.66;;;16.56;41.23
78123;BME280;67376;44.802;10.332;2023-03-02T08:00:43;101215.69;;;16.55;41.32
78123;BME280;67376;44.802;10.332;2023-03-02T08:03:09;101217.97;;;16.58;41.38
78123;BME280;67376;44.802;10.332;2023-03-02T08:05:34;101215.09;;;16.59;41.17
78123;BME280;67376;44.802;10.332;2023-03-02T08:07:59;101223.81;;;16.61;41.48
78123;BME280;67376;44.802;10.332;2023-03-02T08:10:25;101215.72;;;16.61;41.42
78123;BME280;67376;44.802;10.332;2023-03-02T08:12:50;101226.13;;;16.64;41.54
78123;BME280;67376;44.802;10.332;2023-03-02T08:15:16;101216.00;;;16.66;41.28
78123;BME280;67376;44.802;10.332;2023-03-02T08:17:42;101221.81;;;16.70;40.99
78123;BME280;67376;44.802;10.332;2023-03-02T08:20:07;101222.22;;;16.67;41.46
78123;BME280;67376;44.802;10.332;2023-03-02T08:22:33;101213.72;;;16.70;41.19
78123;BME280;67376;44.802;10.332;2023-03-02T08:24:58;101218.91;;;16.78;41.30
78123;BME280;67376;44.802;10.332;2023-03-02T08:27:24;101220.16;;;16.75;40.90
78123;BME280;67376;44.802;10.332;2023-03-02T08:29:49;101219.94;;;16.77;40.87
78123;BME280;67376;44.802;10.332;2023-03-02T08:32:15;101215.19;;;16.72;41.36
78123;BME280;67376;44.802;10.332;2023-03-02T08:34:40;101214.34;;;16.72;40.87
78123;BME280;67376;44.802;10.332;2023-03-02T08:37:06;101214.75;;;16.75;40.63
78123;BME280;67376;44.802;10.332;2023-03-02T08:39:32;101217.25;;;16.77;40.92
78123;BME280;67376;44.802;10.332;2023-03-02T08:41:57;101217.06;;;16.78;40.87
78123;BME280;67376;44.802;10.332;2023-03-02T08:44:23;101214.78;;;16.82;40.97
78123;BME280;67376;44.802;10.332;2023-03-02T08:46:49;101205.63;;;16.76;40.97
78123;BME280;67376;44.802;10.332;2023-03-02T08:49:16;101209.38;;;16.75;41.05
78123;BME280;67376;44.802;10.332;2023-03-02T08:51:42;101217.88;;;16.72;41.11
78123;BME280;67376;44.802;10.332;2023-03-02T08:54:08;101216.66;;;16.75;40.98
78123;BME280;67376;44.802;10.332;2023-03-02T08:56:36;101211.25;;;16.75;40.96
78123;BME280;67376;44.802;10.332;2023-03-02T08:59:05;101212.06;;;16.75;41.23
78123;BME280;67376;44.802;10.332;2023-03-02T09:01:33;101208.56;;;16.75;41.19
78123;BME280;67376;44.802;10.332;2023-03-02T09:04:00;101203.19;;;16.75;41.43
78123;BME280;67376;44.802;10.332;2023-03-02T09:06:29;101202.75;;;16.71;41.33
78123;BME280;67376;44.802;10.332;2023-03-02T09:08:56;101215.41;;;16.77;41.32
78123;BME280;67376;44.802;10.332;2023-03-02T09:11:22;101206.47;;;16.77;40.73
78123;BME280;67376;44.802;10.332;2023-03-02T09:13:47;101206.06;;;16.73;41.54
78123;BME280;67376;44.802;10.332;2023-03-02T09:16:13;101210.19;;;16.76;40.98
78123;BME280;67376;44.802;10.332;2023-03-02T09:18:39;101213.31;;;16.79;40.84
78123;BME280;67376;44.802;10.332;2023-03-02T09:21:05;101214.56;;;16.77;40.27
78123;BME280;67376;44.802;10.332;2023-03-02T09:23:31;101208.56;;;16.75;41.34
78123;BME280;67376;44.802;10.332;2023-03-02T09:25:57;101212.69;;;16.77;41.32
78123;BME280;67376;44.802;10.332;2023-03-02T09:28:23;101216.03;;;16.79;41.19
78123;BME280;67376;44.802;10.332;2023-03-02T09:31:01;101214.38;;;16.78;40.72
78123;BME280;67376;44.802;10.332;2023-03-02T09:33:28;101217.69;;;16.80;41.05
78123;BME280;67376;44.802;10.332;2023-03-02T09:35:54;101222.88;;;16.82;40.97
78123;BME280;67376;44.802;10.332;2023-03-02T09:38:19;101225.56;;;16.82;41.20
78123;BME280;67376;44.802;10.332;2023-03-02T09:54:19;101216.47;;;16.83;41.20
78123;BME280;67376;44.802;10.332;2023-03-02T09:56:51;101215.22;;;16.86;40.83
78123;BME280;67376;44.802;10.332;2023-03-02T09:59:44;101214.41;;;16.85;40.72
78123;BME280;67376;44.802;10.332;2023-03-02T10:02:32;101221.66;;;16.84;40.86
78123;BME280;67376;44.802;10.332;2023-03-02T10:05:01;101214.19;;;16.87;41.26
78123;BME280;67376;44.802;10.332;2023-03-02T10:07:31;101214.78;;;16.82;41.21
78123;BME280;67376;44.802;10.332;2023-03-02T10:15:33;101204.22;;;16.80;41.03
78123;BME280;67376;44.802;10.332;2023-03-02T10:32:21;101191.56;;;16.81;41.25
78123;BME280;67376;44.802;10.332;2023-03-02T10:34:48;101193.84;;;16.84;41.15
78123;BME280;67376;44.802;10.332;2023-03-02T10:37:17;101184.94;;;16.83;41.00
78123;BME280;67376;44.802;10.332;2023-03-02T10:39:43;101187.19;;;16.80;40.71
78123;BME280;67376;44.802;10.332;2023-03-02T10:42:13;101189.69;;;16.81;41.21
78123;BME280;67376;44.802;10.332;2023-03-02T10:44:43;101189.50;;;16.83;41.03
78123;BME280;67376;44.802;10.332;2023-03-02T10:47:19;101191.16;;;16.84;41.40
78123;BME280;67376;44.802;10.332;2023-03-02T10:49:46;101183.50;;;16.88;41.04
78123;BME280;67376;44.802;10.332;2023-03-02T10:52:14;101189.72;;;16.88;41.04
78123;BME280;67376;44.802;10.332;2023-03-02T10:54:40;101191.38;;;16.89;40.97
78123;BME280;67376;44.802;10.332;2023-03-02T11:00:00;101187.84;;;16.89;40.93
78123;BME280;67376;44.802;10.332;2023-03-02T11:02:28;101192.22;;;16.90;41.12
78123;BME280;67376;44.802;10.332;2023-03-02T11:07:51;101184.53;;;16.87;41.22
78123;BME280;67376;44.802;10.332;2023-03-02T11:10:19;101175.19;;;16.89;41.08
78123;BME280;67376;44.802;10.332;2023-03-02T11:12:47;101178.94;;;16.88;41.06
78123;BME280;67376;44.802;10.332;2023-03-02T11:15:18;101177.50;;;16.92;41.38
78123;BME280;67376;44.802;10.332;2023-03-02T11:17:48;101180.16;;;16.86;41.40
78123;BME280;67376;44.802;10.332;2023-03-02T11:20:29;101181.84;;;16.87;41.30
78123;BME280;67376;44.802;10.332;2023-03-02T11:23:05;101167.91;;;16.83;41.71
78123;BME280;67376;44.802;10.332;2023-03-02T11:25:38;101175.38;;;16.81;41.41
78123;BME280;67376;44.802;10.332;2023-03-02T11:28:11;101176.22;;;16.81;41.21
78123;BME280;67376;44.802;10.332;2023-03-02T11:30:45;101176.84;;;16.83;41.40
78123;BME280;67376;44.802;10.332;2023-03-02T11:33:33;101174.13;;;16.77;41.37
78123;BME280;67376;44.802;10.332;2023-03-02T11:36:10;101178.06;;;16.81;41.33
78123;BME280;67376;44.802;10.332;2023-03-02T11:38:50;101171.22;;;16.72;41.30
78123;BME280;67376;44.802;10.332;2023-03-02T11:41:29;101174.31;;;16.75;41.59
78123;BME280;67376;44.802;10.332;2023-03-02T11:43:59;101172.44;;;16.69;41.53
78123;BME280;67376;44.802;10.332;2023-03-02T11:46:26;101179.72;;;16.75;41.41
78123;BME280;67376;44.802;10.332;2023-03-02T11:48:57;101175.78;;;16.71;41.27
78123;BME280;67376;44.802;10.332;2023-03-02T11:51:53;101180.78;;;16.74;41.75
78123;BME280;67376;44.802;10.332;2023-03-02T11:54:41;101168.31;;;16.73;41.53
78123;BME280;67376;44.802;10.332;2023-03-02T11:57:24;101172.25;;;16.71;41.26
78123;BME280;67376;44.802;10.332;2023-03-02T11:59:52;101172.25;;;16.71;41.65
78123;BME280;67376;44.802;10.332;2023-03-02T12:02:20;101169.75;;;16.76;41.71
78123;BME280;67376;44.802;10.332;2023-03-02T12:04:46;101174.94;;;16.77;41.69
78123;BME280;67376;44.802;10.332;2023-03-02T12:07:24;101169.75;;;16.69;41.80
78123;BME280;67376;44.802;10.332;2023-03-02T12:10:04;101171.22;;;16.72;41.94
78123;BME280;67376;44.802;10.332;2023-03-02T12:14:58;101160.44;;;16.72;42.09
78123;BME280;67376;44.802;10.332;2023-03-02T12:19:50;101161.25;;;16.79;41.33
78123;BME280;67376;44.802;10.332;2023-03-02T12:22:30;101162.53;;;16.83;41.43
78123;BME280;67376;44.802;10.332;2023-03-02T12:27:49;101157.34;;;16.81;41.42
78123;BME280;67376;44.802;10.332;2023-03-02T12:32:43;101152.16;;;16.80;41.53
78123;BME280;67376;44.802;10.332;2023-03-02T12:35:13;101151.94;;;16.81;41.61
78123;BME280;67376;44.802;10.332;2023-03-02T12:37:52;101150.28;;;16.80;41.59
78123;BME280;67376;44.802;10.332;2023-03-02T12:44:32;101142.00;;;16.82;41.77
78123;BME280;67376;44.802;10.332;2023-03-02T12:46:34;101134.31;;;16.79;41.52
78123;BME280;67376;44.802;10.332;2023-03-02T12:51:59;101138.88;;;16.85;41.72
78123;BME280;67376;44.802;10.332;2023-03-02T12:54:33;101135.56;;;16.83;41.55
78123;BME280;67376;44.802;10.332;2023-03-02T12:57:17;101143.25;;;16.86;41.31
78123;BME280;67376;44.802;10.332;2023-03-02T12:59:50;101142.81;;;16.82;41.72
78123;BME280;67376;44.802;10.332;2023-03-02T13:02:19;101137.22;;;16.84;41.73
78123;BME280;67376;44.802;10.332;2023-03-02T13:05:09;101136.00;;;16.87;41.71
78123;BME280;67376;44.802;10.332;2023-03-02T13:07:53;101134.94;;;16.88;41.75
78123;BME280;67376;44.802;10.332;2023-03-02T13:10:34;101128.94;;;16.86;41.59
78123;BME280;67376;44.802;10.332;2023-03-02T13:13:01;101130.41;;;16.88;41.66
78123;BME280;67376;44.802;10.332;2023-03-02T13:15:27;101120.00;;;16.85;41.75
78123;BME280;67376;44.802;10.332;2023-03-02T13:17:58;101115.66;;;16.84;41.52
78123;BME280;67376;44.802;10.332;2023-03-02T13:20:26;101127.28;;;16.84;41.73
78123;BME280;67376;44.802;10.332;2023-03-02T13:22:52;101118.78;;;16.88;41.48
78123;BME280;67376;44.802;10.332;2023-03-02T13:25:29;101116.06;;;16.88;41.78
78123;BME280;67376;44.802;10.332;2023-03-02T13:27:57;101118.16;;;16.86;41.87
78123;BME280;67376;44.802;10.332;2023-03-02T13:30:30;101116.28;;;16.86;41.64
78123;BME280;67376;44.802;10.332;2023-03-02T13:33:22;101117.31;;;16.85;42.09
78123;BME280;67376;44.802;10.332;2023-03-02T13:35:48;101115.44;;;16.86;42.13
78123;BME280;67376;44.802;10.332;2023-03-02T13:38:18;101125.19;;;16.87;41.73
78123;BME280;67376;44.802;10.332;2023-03-02T13:40:49;101122.72;;;16.85;41.87
78123;BME280;67376;44.802;10.332;2023-03-02T13:45:53;101108.81;;;16.88;42.21
78123;BME280;67376;44.802;10.332;2023-03-02T13:48:19;101102.19;;;16.91;41.74
78123;BME280;67376;44.802;10.332;2023-03-02T13:51:15;101103.63;;;16.87;41.72
78123;BME280;67376;44.802;10.332;2023-03-02T13:53:44;101097.19;;;16.88;41.94
78123;BME280;67376;44.802;10.332;2023-03-02T13:56:16;101099.28;;;16.86;41.45